This is the latest recevied weather packets stored in our database for station/object SK4BW-10. If no packets are shown the sender has not sent any weather packets the latest 10 day(s).
| Time | Temp. | Humidity | Pressure | Rain* | Wind** | Luminosity | Snow |
|---|---|---|---|---|---|---|---|
| 1777267059 | -1.11° C | 64% | 1021.3 hPa | - | - | - | - |
| 1777266158 | -1.67° C | 65% | 1021.2 hPa | - | - | - | - |
| 1777265258 | -1.67° C | 66% | 1020.9 hPa | - | - | - | - |
| 1777264356 | -1.67° C | 66% | 1021 hPa | - | - | - | - |
| 1777263456 | -2.22° C | 67% | 1020.8 hPa | - | - | - | - |
| 1777262555 | -2.22° C | 67% | 1020.7 hPa | - | - | - | - |
| 1777261654 | -2.22° C | 68% | 1020.5 hPa | - | - | - | - |
| 1777260754 | -2.22° C | 68% | 1020.4 hPa | - | - | - | - |
| 1777259853 | -2.22° C | 68% | 1020.4 hPa | - | - | - | - |
| 1777258953 | -2.22° C | 67% | 1020.3 hPa | - | - | - | - |
| 1777258052 | -2.22° C | 67% | 1020.2 hPa | - | - | - | - |
| 1777235534 | 1.67° C | 49% | 1018 hPa | - | - | - | - |
| 1777232832 | 2.22° C | 46% | 1017.8 hPa | - | - | - | - |
| 1777231931 | 2.78° C | 45% | 1017.9 hPa | - | - | - | - |
| 1777231030 | 2.78° C | 43% | 1017.6 hPa | - | - | - | - |
| 1777227428 | 3.33° C | 42% | 1017.3 hPa | - | - | - | - |
| 1777220221 | 5° C | 38% | 1016.3 hPa | - | - | - | - |
| 1777219321 | 4.44° C | 39% | 1016.3 hPa | - | - | - | - |
| 1777217520 | 5.56° C | 35% | 1016.3 hPa | - | - | - | - |
| 1777215719 | 5.56° C | 34% | 1016 hPa | - | - | - | - |
| 1777213918 | 5.56° C | 37% | 1016 hPa | - | - | - | - |
| 1777213017 | 5° C | 37% | 1015.9 hPa | - | - | - | - |
| 1777210315 | 5.56° C | 35% | 1015.8 hPa | - | - | - | - |
| 1777209415 | 5.56° C | 36% | 1015.7 hPa | - | - | - | - |
| 1777208514 | 5° C | 37% | 1015.9 hPa | - | - | - | - |
* Rain since midnight (hover to see other rain measurements)
** Current wind speed in m/s (hover to see current wind gust speed)